sensor_id;sensor_type;location;lat;lon;timestamp;temperature;humidity
34829;DHT22;21042;47.620;12.188;2024-03-29T00:01:16;2.90;99.90
34829;DHT22;21042;47.620;12.188;2024-03-29T00:03:42;2.80;99.90
34829;DHT22;21042;47.620;12.188;2024-03-29T00:06:08;2.70;99.90
34829;DHT22;21042;47.620;12.188;2024-03-29T00:08:34;2.70;99.90
34829;DHT22;21042;47.620;12.188;2024-03-29T00:11:00;2.60;99.90
34829;DHT22;21042;47.620;12.188;2024-03-29T00:13:25;2.60;99.90
34829;DHT22;21042;47.620;12.188;2024-03-29T00:15:51;2.70;99.90
34829;DHT22;21042;47.620;12.188;2024-03-29T00:18:17;2.80;99.90
34829;DHT22;21042;47.620;12.188;2024-03-29T00:20:43;2.80;99.90
34829;DHT22;21042;47.620;12.188;2024-03-29T00:23:08;2.80;99.90
34829;DHT22;21042;47.620;12.188;2024-03-29T00:25:34;2.90;99.90
34829;DHT22;21042;47.620;12.188;2024-03-29T00:28:00;2.90;99.90
34829;DHT22;21042;47.620;12.188;2024-03-29T00:30:26;3.00;99.90
34829;DHT22;21042;47.620;12.188;2024-03-29T00:32:52;2.90;99.90
34829;DHT22;21042;47.620;12.188;2024-03-29T00:35:18;2.90;99.90
34829;DHT22;21042;47.620;12.188;2024-03-29T00:37:45;2.90;99.90
34829;DHT22;21042;47.620;12.188;2024-03-29T00:40:11;2.90;99.90
34829;DHT22;21042;47.620;12.188;2024-03-29T00:42:37;2.90;99.90
34829;DHT22;21042;47.620;12.188;2024-03-29T00:45:03;2.90;99.90
34829;DHT22;21042;47.620;12.188;2024-03-29T00:47:29;2.90;99.90
34829;DHT22;21042;47.620;12.188;2024-03-29T00:49:54;2.90;99.90
34829;DHT22;21042;47.620;12.188;2024-03-29T00:52:20;2.90;99.90
34829;DHT22;21042;47.620;12.188;2024-03-29T00:54:46;2.90;99.90
34829;DHT22;21042;47.620;12.188;2024-03-29T00:57:12;2.90;99.90
34829;DHT22;21042;47.620;12.188;2024-03-29T00:59:40;2.90;99.90
34829;DHT22;21042;47.620;12.188;2024-03-29T01:02:05;2.90;99.90
34829;DHT22;21042;47.620;12.188;2024-03-29T01:04:31;2.90;99.90
34829;DHT22;21042;47.620;12.188;2024-03-29T01:06:57;2.90;99.90
34829;DHT22;21042;47.620;12.188;2024-03-29T01:09:23;2.90;99.90
34829;DHT22;21042;47.620;12.188;2024-03-29T01:11:50;2.90;99.90
34829;DHT22;21042;47.620;12.188;2024-03-29T01:14:16;2.90;99.90
34829;DHT22;21042;47.620;12.188;2024-03-29T01:16:41;2.90;99.90
34829;DHT22;21042;47.620;12.188;2024-03-29T01:19:07;2.90;99.90
34829;DHT22;21042;47.620;12.188;2024-03-29T01:21:35;2.90;99.90
34829;DHT22;21042;47.620;12.188;2024-03-29T01:24:01;2.90;99.90
34829;DHT22;21042;47.620;12.188;2024-03-29T01:26:27;2.90;99.90
34829;DHT22;21042;47.620;12.188;2024-03-29T01:28:53;2.80;99.90
34829;DHT22;21042;47.620;12.188;2024-03-29T01:31:19;2.80;99.90
34829;DHT22;21042;47.620;12.188;2024-03-29T01:33:45;2.80;99.90
34829;DHT22;21042;47.620;12.188;2024-03-29T01:36:10;2.80;99.90
34829;DHT22;21042;47.620;12.188;2024-03-29T01:38:36;2.70;99.90
34829;DHT22;21042;47.620;12.188;2024-03-29T01:41:02;2.70;99.90
34829;DHT22;21042;47.620;12.188;2024-03-29T01:43:28;2.70;99.90
34829;DHT22;21042;47.620;12.188;2024-03-29T01:45:54;2.70;99.90
34829;DHT22;21042;47.620;12.188;2024-03-29T01:48:20;2.60;99.90
34829;DHT22;21042;47.620;12.188;2024-03-29T01:50:47;2.60;99.90
34829;DHT22;21042;47.620;12.188;2024-03-29T01:53:13;2.70;99.90
34829;DHT22;21042;47.620;12.188;2024-03-29T01:55:40;2.60;99.90
34829;DHT22;21042;47.620;12.188;2024-03-29T01:58:06;2.60;99.90
34829;DHT22;21042;47.620;12.188;2024-03-29T02:00:32;2.60;99.90
34829;DHT22;21042;47.620;12.188;2024-03-29T02:03:02;2.50;99.90
34829;DHT22;21042;47.620;12.188;2024-03-29T02:05:29;2.50;99.90
34829;DHT22;21042;47.620;12.188;2024-03-29T02:07:55;2.50;99.90
34829;DHT22;21042;47.620;12.188;2024-03-29T02:10:22;2.50;99.90
34829;DHT22;21042;47.620;12.188;2024-03-29T02:12:48;2.60;99.90
34829;DHT22;21042;47.620;12.188;2024-03-29T02:15:16;2.60;99.90
34829;DHT22;21042;47.620;12.188;2024-03-29T02:17:42;2.60;99.90
34829;DHT22;21042;47.620;12.188;2024-03-29T02:20:08;2.60;99.90
34829;DHT22;21042;47.620;12.188;2024-03-29T02:22:36;2.60;99.90
34829;DHT22;21042;47.620;12.188;2024-03-29T02:25:03;2.60;99.90
34829;DHT22;21042;47.620;12.188;2024-03-29T02:27:29;2.60;99.90
34829;DHT22;21042;47.620;12.188;2024-03-29T02:30:13;2.60;99.90
34829;DHT22;21042;47.620;12.188;2024-03-29T02:32:40;2.60;99.90
34829;DHT22;21042;47.620;12.188;2024-03-29T02:35:06;2.50;99.90
34829;DHT22;21042;47.620;12.188;2024-03-29T02:37:32;2.50;99.90
34829;DHT22;21042;47.620;12.188;2024-03-29T02:39:57;2.50;99.90
34829;DHT22;21042;47.620;12.188;2024-03-29T02:42:23;2.60;99.90
34829;DHT22;21042;47.620;12.188;2024-03-29T02:44:49;2.60;99.90
34829;DHT22;21042;47.620;12.188;2024-03-29T02:47:14;2.60;99.90
34829;DHT22;21042;47.620;12.188;2024-03-29T02:49:50;2.50;99.90
34829;DHT22;21042;47.620;12.188;2024-03-29T02:52:15;2.60;99.90
34829;DHT22;21042;47.620;12.188;2024-03-29T02:54:41;2.50;99.90
34829;DHT22;21042;47.620;12.188;2024-03-29T02:57:07;2.60;99.90
34829;DHT22;21042;47.620;12.188;2024-03-29T02:59:33;2.60;99.90
34829;DHT22;21042;47.620;12.188;2024-03-29T03:01:59;2.60;99.90
34829;DHT22;21042;47.620;12.188;2024-03-29T03:04:24;2.60;99.90
34829;DHT22;21042;47.620;12.188;2024-03-29T03:06:50;2.70;99.90
34829;DHT22;21042;47.620;12.188;2024-03-29T03:09:16;2.60;99.90
34829;DHT22;21042;47.620;12.188;2024-03-29T03:12:01;2.60;99.90
34829;DHT22;21042;47.620;12.188;2024-03-29T03:14:26;2.60;99.90
34829;DHT22;21042;47.620;12.188;2024-03-29T03:16:52;2.60;99.90
34829;DHT22;21042;47.620;12.188;2024-03-29T03:19:18;2.60;99.90
34829;DHT22;21042;47.620;12.188;2024-03-29T03:21:44;2.50;99.90
34829;DHT22;21042;47.620;12.188;2024-03-29T03:24:10;2.60;99.90
34829;DHT22;21042;47.620;12.188;2024-03-29T03:26:37;2.60;99.90
34829;DHT22;21042;47.620;12.188;2024-03-29T03:29:03;2.60;99.90
34829;DHT22;21042;47.620;12.188;2024-03-29T03:31:29;2.60;99.90
34829;DHT22;21042;47.620;12.188;2024-03-29T03:33:54;2.60;99.90
34829;DHT22;21042;47.620;12.188;2024-03-29T03:36:20;2.70;99.90
34829;DHT22;21042;47.620;12.188;2024-03-29T03:38:46;2.70;99.90
34829;DHT22;21042;47.620;12.188;2024-03-29T03:41:11;2.70;99.90
34829;DHT22;21042;47.620;12.188;2024-03-29T03:43:38;2.70;99.90
34829;DHT22;21042;47.620;12.188;2024-03-29T03:46:03;2.80;99.90
34829;DHT22;21042;47.620;12.188;2024-03-29T03:48:29;2.80;99.90
34829;DHT22;21042;47.620;12.188;2024-03-29T03:50:55;2.80;99.90
34829;DHT22;21042;47.620;12.188;2024-03-29T03:53:21;2.80;99.90
34829;DHT22;21042;47.620;12.188;2024-03-29T03:55:47;2.80;99.90
34829;DHT22;21042;47.620;12.188;2024-03-29T03:58:13;2.80;99.90
34829;DHT22;21042;47.620;12.188;2024-03-29T04:00:39;2.80;99.90
34829;DHT22;21042;47.620;12.188;2024-03-29T04:03:05;2.80;99.90
34829;DHT22;21042;47.620;12.188;2024-03-29T04:05:31;2.80;99.90
34829;DHT22;21042;47.620;12.188;2024-03-29T04:07:57;2.80;99.90
34829;DHT22;21042;47.620;12.188;2024-03-29T04:10:23;2.80;99.90
34829;DHT22;21042;47.620;12.188;2024-03-29T04:12:52;2.80;99.90
34829;DHT22;21042;47.620;12.188;2024-03-29T04:15:18;2.80;99.90
34829;DHT22;21042;47.620;12.188;2024-03-29T04:17:44;2.80;99.90
34829;DHT22;21042;47.620;12.188;2024-03-29T04:20:10;2.80;99.90
34829;DHT22;21042;47.620;12.188;2024-03-29T04:22:35;2.80;99.90
34829;DHT22;21042;47.620;12.188;2024-03-29T04:25:01;2.70;99.90
34829;DHT22;21042;47.620;12.188;2024-03-29T04:27:27;2.70;99.90
34829;DHT22;21042;47.620;12.188;2024-03-29T04:29:53;2.70;99.90
34829;DHT22;21042;47.620;12.188;2024-03-29T04:32:19;2.70;99.90
34829;DHT22;21042;47.620;12.188;2024-03-29T04:34:49;2.70;99.90
34829;DHT22;21042;47.620;12.188;2024-03-29T04:37:14;2.70;99.90
34829;DHT22;21042;47.620;12.188;2024-03-29T04:39:42;2.70;99.90
34829;DHT22;21042;47.620;12.188;2024-03-29T04:42:08;2.70;99.90
34829;DHT22;21042;47.620;12.188;2024-03-29T04:44:33;2.70;99.90
34829;DHT22;21042;47.620;12.188;2024-03-29T04:46:59;2.60;99.90
34829;DHT22;21042;47.620;12.188;2024-03-29T04:49:25;2.60;99.90
34829;DHT22;21042;47.620;12.188;2024-03-29T04:51:56;2.60;99.90
34829;DHT22;21042;47.620;12.188;2024-03-29T04:54:22;2.60;99.90
34829;DHT22;21042;47.620;12.188;2024-03-29T04:56:48;2.60;99.90
34829;DHT22;21042;47.620;12.188;2024-03-29T04:59:14;2.60;99.90
34829;DHT22;21042;47.620;12.188;2024-03-29T05:01:43;2.60;99.90
34829;DHT22;21042;47.620;12.188;2024-03-29T05:04:09;2.50;99.90
34829;DHT22;21042;47.620;12.188;2024-03-29T05:06:35;2.50;99.90
34829;DHT22;21042;47.620;12.188;2024-03-29T05:09:01;2.60;99.90
34829;DHT22;21042;47.620;12.188;2024-03-29T05:11:27;2.60;99.90
34829;DHT22;21042;47.620;12.188;2024-03-29T05:13:53;2.60;99.90
34829;DHT22;21042;47.620;12.188;2024-03-29T05:16:19;2.60;99.90
34829;DHT22;21042;47.620;12.188;2024-03-29T05:18:47;2.60;99.90
34829;DHT22;21042;47.620;12.188;2024-03-29T05:21:13;2.60;99.90
34829;DHT22;21042;47.620;12.188;2024-03-29T05:23:39;2.60;99.90
34829;DHT22;21042;47.620;12.188;2024-03-29T05:26:04;2.70;99.90
34829;DHT22;21042;47.620;12.188;2024-03-29T05:28:30;2.70;99.90
34829;DHT22;21042;47.620;12.188;2024-03-29T05:30:56;2.80;99.90
34829;DHT22;21042;47.620;12.188;2024-03-29T05:33:22;2.80;99.90
34829;DHT22;21042;47.620;12.188;2024-03-29T05:35:48;2.80;99.90
34829;DHT22;21042;47.620;12.188;2024-03-29T05:38:14;2.90;99.90
34829;DHT22;21042;47.620;12.188;2024-03-29T05:40:39;2.90;99.90
34829;DHT22;21042;47.620;12.188;2024-03-29T05:43:05;3.00;99.90
34829;DHT22;21042;47.620;12.188;2024-03-29T05:45:31;3.10;99.90
34829;DHT22;21042;47.620;12.188;2024-03-29T05:47:57;3.10;99.90
34829;DHT22;21042;47.620;12.188;2024-03-29T05:50:24;3.10;99.90
34829;DHT22;21042;47.620;12.188;2024-03-29T05:52:50;3.20;99.90
34829;DHT22;21042;47.620;12.188;2024-03-29T05:55:16;3.30;99.90
34829;DHT22;21042;47.620;12.188;2024-03-29T05:57:42;3.30;99.90
34829;DHT22;21042;47.620;12.188;2024-03-29T06:00:11;3.30;99.90
34829;DHT22;21042;47.620;12.188;2024-03-29T06:02:37;3.30;99.90
34829;DHT22;21042;47.620;12.188;2024-03-29T06:05:02;3.30;99.90
34829;DHT22;21042;47.620;12.188;2024-03-29T06:07:29;3.30;99.90
34829;DHT22;21042;47.620;12.188;2024-03-29T06:09:56;3.30;99.90
34829;DHT22;21042;47.620;12.188;2024-03-29T06:12:22;3.40;99.90
34829;DHT22;21042;47.620;12.188;2024-03-29T06:14:47;3.40;99.90
34829;DHT22;21042;47.620;12.188;2024-03-29T06:17:32;3.50;99.90
34829;DHT22;21042;47.620;12.188;2024-03-29T06:19:58;3.60;99.90
34829;DHT22;21042;47.620;12.188;2024-03-29T06:22:26;3.60;99.90
34829;DHT22;21042;47.620;12.188;2024-03-29T06:24:56;3.60;99.90
34829;DHT22;21042;47.620;12.188;2024-03-29T06:27:24;3.60;99.90
34829;DHT22;21042;47.620;12.188;2024-03-29T06:29:50;3.60;99.90
34829;DHT22;21042;47.620;12.188;2024-03-29T06:32:16;3.70;99.90
34829;DHT22;21042;47.620;12.188;2024-03-29T06:34:47;3.80;99.90
34829;DHT22;21042;47.620;12.188;2024-03-29T06:37:13;4.00;99.90
34829;DHT22;21042;47.620;12.188;2024-03-29T06:39:38;4.10;99.90
34829;DHT22;21042;47.620;12.188;2024-03-29T06:42:04;4.20;99.90
34829;DHT22;21042;47.620;12.188;2024-03-29T06:44:33;4.30;99.90
34829;DHT22;21042;47.620;12.188;2024-03-29T06:46:59;4.40;99.90
34829;DHT22;21042;47.620;12.188;2024-03-29T06:49:24;4.50;99.90
34829;DHT22;21042;47.620;12.188;2024-03-29T06:51:50;4.70;99.90
34829;DHT22;21042;47.620;12.188;2024-03-29T06:54:16;4.80;99.90
34829;DHT22;21042;47.620;12.188;2024-03-29T06:56:42;4.80;99.90
34829;DHT22;21042;47.620;12.188;2024-03-29T06:59:07;4.90;99.90
34829;DHT22;21042;47.620;12.188;2024-03-29T07:01:33;4.90;99.90
34829;DHT22;21042;47.620;12.188;2024-03-29T07:03:59;5.10;99.90
34829;DHT22;21042;47.620;12.188;2024-03-29T07:06:25;5.30;99.90
34829;DHT22;21042;47.620;12.188;2024-03-29T07:08:50;5.40;99.90
34829;DHT22;21042;47.620;12.188;2024-03-29T07:11:16;5.40;99.90
34829;DHT22;21042;47.620;12.188;2024-03-29T07:13:42;5.50;99.90
34829;DHT22;21042;47.620;12.188;2024-03-29T07:16:08;5.60;99.90
34829;DHT22;21042;47.620;12.188;2024-03-29T07:18:33;5.70;99.90
34829;DHT22;21042;47.620;12.188;2024-03-29T07:20:59;5.80;99.90
34829;DHT22;21042;47.620;12.188;2024-03-29T07:23:25;6.00;99.90
34829;DHT22;21042;47.620;12.188;2024-03-29T07:25:57;6.10;99.90
34829;DHT22;21042;47.620;12.188;2024-03-29T07:28:23;6.30;99.90
34829;DHT22;21042;47.620;12.188;2024-03-29T07:30:49;6.50;99.90
34829;DHT22;21042;47.620;12.188;2024-03-29T07:33:24;6.70;99.90
34829;DHT22;21042;47.620;12.188;2024-03-29T07:35:54;6.90;99.90
34829;DHT22;21042;47.620;12.188;2024-03-29T07:38:20;7.10;99.90
34829;DHT22;21042;47.620;12.188;2024-03-29T07:40:46;7.20;99.90
34829;DHT22;21042;47.620;12.188;2024-03-29T07:43:13;7.20;99.90
34829;DHT22;21042;47.620;12.188;2024-03-29T07:45:40;7.30;99.90
34829;DHT22;21042;47.620;12.188;2024-03-29T07:48:06;7.40;99.90
34829;DHT22;21042;47.620;12.188;2024-03-29T07:50:32;7.60;99.90
34829;DHT22;21042;47.620;12.188;2024-03-29T07:52:58;7.70;99.90
34829;DHT22;21042;47.620;12.188;2024-03-29T07:55:24;7.70;99.90
34829;DHT22;21042;47.620;12.188;2024-03-29T07:57:49;7.70;99.90
34829;DHT22;21042;47.620;12.188;2024-03-29T08:00:16;7.90;99.90
34829;DHT22;21042;47.620;12.188;2024-03-29T08:02:42;8.10;99.90
34829;DHT22;21042;47.620;12.188;2024-03-29T08:05:07;8.30;99.90
34829;DHT22;21042;47.620;12.188;2024-03-29T08:07:33;8.50;99.90
34829;DHT22;21042;47.620;12.188;2024-03-29T08:09:59;8.60;99.90
34829;DHT22;21042;47.620;12.188;2024-03-29T08:12:25;8.60;99.90
34829;DHT22;21042;47.620;12.188;2024-03-29T08:14:50;8.60;99.90
34829;DHT22;21042;47.620;12.188;2024-03-29T08:17:16;8.60;99.90
34829;DHT22;21042;47.620;12.188;2024-03-29T08:19:42;8.80;99.90
34829;DHT22;21042;47.620;12.188;2024-03-29T08:22:08;8.90;99.90
34829;DHT22;21042;47.620;12.188;2024-03-29T08:24:36;9.00;99.90
34829;DHT22;21042;47.620;12.188;2024-03-29T08:27:02;8.90;99.90
34829;DHT22;21042;47.620;12.188;2024-03-29T08:29:28;9.00;99.90
34829;DHT22;21042;47.620;12.188;2024-03-29T08:31:54;9.10;99.90
34829;DHT22;21042;47.620;12.188;2024-03-29T08:34:19;9.20;99.90
34829;DHT22;21042;47.620;12.188;2024-03-29T08:36:45;9.10;99.90
34829;DHT22;21042;47.620;12.188;2024-03-29T08:39:11;9.20;99.90
34829;DHT22;21042;47.620;12.188;2024-03-29T08:41:37;9.20;99.90
34829;DHT22;21042;47.620;12.188;2024-03-29T08:44:02;9.30;99.90
34829;DHT22;21042;47.620;12.188;2024-03-29T08:46:28;9.40;99.90
34829;DHT22;21042;47.620;12.188;2024-03-29T08:48:54;9.40;99.90
34829;DHT22;21042;47.620;12.188;2024-03-29T08:51:23;9.50;99.90
34829;DHT22;21042;47.620;12.188;2024-03-29T08:53:49;9.60;99.90
34829;DHT22;21042;47.620;12.188;2024-03-29T08:56:15;9.70;99.90
34829;DHT22;21042;47.620;12.188;2024-03-29T08:58:41;9.80;99.90
34829;DHT22;21042;47.620;12.188;2024-03-29T09:01:07;9.80;99.90
34829;DHT22;21042;47.620;12.188;2024-03-29T09:03:32;9.90;99.90
34829;DHT22;21042;47.620;12.188;2024-03-29T09:05:58;9.90;99.90
34829;DHT22;21042;47.620;12.188;2024-03-29T09:08:24;9.80;99.90
34829;DHT22;21042;47.620;12.188;2024-03-29T09:10:50;9.80;99.90
34829;DHT22;21042;47.620;12.188;2024-03-29T09:13:15;9.90;99.90
34829;DHT22;21042;47.620;12.188;2024-03-29T09:15:41;9.80;99.90
34829;DHT22;21042;47.620;12.188;2024-03-29T09:18:08;9.70;99.90
34829;DHT22;21042;47.620;12.188;2024-03-29T09:20:43;9.80;99.90
34829;DHT22;21042;47.620;12.188;2024-03-29T09:23:09;10.20;99.90
34829;DHT22;21042;47.620;12.188;2024-03-29T09:25:39;10.50;99.90
34829;DHT22;21042;47.620;12.188;2024-03-29T09:28:05;10.70;99.90
34829;DHT22;21042;47.620;12.188;2024-03-29T09:30:31;11.10;99.90
34829;DHT22;21042;47.620;12.188;2024-03-29T09:32:56;11.40;99.90
34829;DHT22;21042;47.620;12.188;2024-03-29T09:35:22;11.40;99.90
34829;DHT22;21042;47.620;12.188;2024-03-29T09:37:48;11.40;99.90
34829;DHT22;21042;47.620;12.188;2024-03-29T09:40:14;11.60;99.90
34829;DHT22;21042;47.620;12.188;2024-03-29T09:42:39;11.40;99.90
34829;DHT22;21042;47.620;12.188;2024-03-29T09:45:06;11.20;99.90
34829;DHT22;21042;47.620;12.188;2024-03-29T09:47:33;11.20;99.90
34829;DHT22;21042;47.620;12.188;2024-03-29T09:50:02;11.30;99.90
34829;DHT22;21042;47.620;12.188;2024-03-29T09:52:32;11.20;99.90
34829;DHT22;21042;47.620;12.188;2024-03-29T09:54:58;11.10;99.90
34829;DHT22;21042;47.620;12.188;2024-03-29T09:57:25;11.10;99.90
34829;DHT22;21042;47.620;12.188;2024-03-29T09:59:55;11.20;99.90
34829;DHT22;21042;47.620;12.188;2024-03-29T10:02:21;11.30;99.90
34829;DHT22;21042;47.620;12.188;2024-03-29T10:04:48;11.40;99.90
34829;DHT22;21042;47.620;12.188;2024-03-29T10:07:17;11.80;99.90
34829;DHT22;21042;47.620;12.188;2024-03-29T10:09:43;11.90;99.90
34829;DHT22;21042;47.620;12.188;2024-03-29T10:12:10;12.00;99.90
34829;DHT22;21042;47.620;12.188;2024-03-29T10:14:48;12.50;99.90
34829;DHT22;21042;47.620;12.188;2024-03-29T10:17:28;12.80;99.90
34829;DHT22;21042;47.620;12.188;2024-03-29T10:19:54;12.80;99.90
34829;DHT22;21042;47.620;12.188;2024-03-29T10:22:23;13.00;99.90
34829;DHT22;21042;47.620;12.188;2024-03-29T10:24:48;13.20;99.90
34829;DHT22;21042;47.620;12.188;2024-03-29T10:27:14;13.40;99.90
34829;DHT22;21042;47.620;12.188;2024-03-29T10:29:40;13.60;99.90
34829;DHT22;21042;47.620;12.188;2024-03-29T10:32:06;14.10;99.90
34829;DHT22;21042;47.620;12.188;2024-03-29T10:34:32;14.40;99.90
34829;DHT22;21042;47.620;12.188;2024-03-29T10:37:02;14.80;99.90
34829;DHT22;21042;47.620;12.188;2024-03-29T10:39:31;15.10;99.90
34829;DHT22;21042;47.620;12.188;2024-03-29T10:41:59;15.20;99.90
34829;DHT22;21042;47.620;12.188;2024-03-29T10:44:25;15.30;99.90
34829;DHT22;21042;47.620;12.188;2024-03-29T10:46:51;15.30;99.90
34829;DHT22;21042;47.620;12.188;2024-03-29T10:49:17;15.50;99.90
34829;DHT22;21042;47.620;12.188;2024-03-29T10:51:43;15.90;99.90
34829;DHT22;21042;47.620;12.188;2024-03-29T10:54:10;16.30;99.90
34829;DHT22;21042;47.620;12.188;2024-03-29T10:56:36;16.70;98.50
34829;DHT22;21042;47.620;12.188;2024-03-29T10:59:21;16.90;98.50
34829;DHT22;21042;47.620;12.188;2024-03-29T11:01:52;17.20;97.20
34829;DHT22;21042;47.620;12.188;2024-03-29T11:04:20;17.60;96.70
34829;DHT22;21042;47.620;12.188;2024-03-29T11:06:47;17.80;95.80
34829;DHT22;21042;47.620;12.188;2024-03-29T11:09:14;17.90;94.80
34829;DHT22;21042;47.620;12.188;2024-03-29T11:11:44;18.10;95.00
34829;DHT22;21042;47.620;12.188;2024-03-29T11:14:13;18.10;94.30
34829;DHT22;21042;47.620;12.188;2024-03-29T11:16:41;18.20;93.70
34829;DHT22;21042;47.620;12.188;2024-03-29T11:19:13;18.20;94.10
34829;DHT22;21042;47.620;12.188;2024-03-29T11:21:40;18.00;93.90
34829;DHT22;21042;47.620;12.188;2024-03-29T11:24:08;17.70;94.70
34829;DHT22;21042;47.620;12.188;2024-03-29T11:26:34;17.40;94.40
34829;DHT22;21042;47.620;12.188;2024-03-29T11:29:00;17.20;95.00
34829;DHT22;21042;47.620;12.188;2024-03-29T11:31:27;17.20;94.00
34829;DHT22;21042;47.620;12.188;2024-03-29T11:33:56;17.30;94.40
34829;DHT22;21042;47.620;12.188;2024-03-29T11:36:23;17.50;93.70
34829;DHT22;21042;47.620;12.188;2024-03-29T11:38:52;17.70;93.30
34829;DHT22;21042;47.620;12.188;2024-03-29T11:41:23;17.80;93.20
34829;DHT22;21042;47.620;12.188;2024-03-29T11:43:58;17.80;92.40
34829;DHT22;21042;47.620;12.188;2024-03-29T11:46:24;17.90;92.50
34829;DHT22;21042;47.620;12.188;2024-03-29T11:48:50;18.10;92.70
34829;DHT22;21042;47.620;12.188;2024-03-29T11:51:18;18.20;91.00
34829;DHT22;21042;47.620;12.188;2024-03-29T11:53:46;18.50;92.90
34829;DHT22;21042;47.620;12.188;2024-03-29T11:56:12;18.60;90.10
34829;DHT22;21042;47.620;12.188;2024-03-29T11:58:38;18.70;89.90
34829;DHT22;21042;47.620;12.188;2024-03-29T12:01:04;18.70;90.40
34829;DHT22;21042;47.620;12.188;2024-03-29T12:03:31;18.80;90.60
34829;DHT22;21042;47.620;12.188;2024-03-29T12:05:58;19.00;90.00
34829;DHT22;21042;47.620;12.188;2024-03-29T12:08:24;19.20;90.20
34829;DHT22;21042;47.620;12.188;2024-03-29T12:10:50;19.20;89.50
34829;DHT22;21042;47.620;12.188;2024-03-29T12:13:16;19.20;89.20
34829;DHT22;21042;47.620;12.188;2024-03-29T12:15:43;19.50;89.40
34829;DHT22;21042;47.620;12.188;2024-03-29T12:18:09;19.80;87.10
34829;DHT22;21042;47.620;12.188;2024-03-29T12:20:35;20.10;88.40
34829;DHT22;21042;47.620;12.188;2024-03-29T12:23:04;20.30;86.10
34829;DHT22;21042;47.620;12.188;2024-03-29T12:25:32;20.40;84.10
34829;DHT22;21042;47.620;12.188;2024-03-29T12:27:58;20.40;84.00
34829;DHT22;21042;47.620;12.188;2024-03-29T12:30:24;20.30;84.70
34829;DHT22;21042;47.620;12.188;2024-03-29T12:33:03;20.30;84.00
34829;DHT22;21042;47.620;12.188;2024-03-29T12:35:30;20.30;82.90
34829;DHT22;21042;47.620;12.188;2024-03-29T12:37:59;20.40;85.00
34829;DHT22;21042;47.620;12.188;2024-03-29T12:40:29;20.60;84.30
34829;DHT22;21042;47.620;12.188;2024-03-29T12:42:58;20.70;84.00
34829;DHT22;21042;47.620;12.188;2024-03-29T12:45:24;20.60;82.60
34829;DHT22;21042;47.620;12.188;2024-03-29T12:47:50;20.40;81.40
34829;DHT22;21042;47.620;12.188;2024-03-29T12:52:48;20.30;80.40
34829;DHT22;21042;47.620;12.188;2024-03-29T12:55:14;20.30;81.30
34829;DHT22;21042;47.620;12.188;2024-03-29T12:57:43;20.40;80.10
34829;DHT22;21042;47.620;12.188;2024-03-29T13:00:10;20.50;78.50
34829;DHT22;21042;47.620;12.188;2024-03-29T13:02:36;20.60;78.70
34829;DHT22;21042;47.620;12.188;2024-03-29T13:05:05;20.80;79.90
34829;DHT22;21042;47.620;12.188;2024-03-29T13:07:31;20.70;79.50
34829;DHT22;21042;47.620;12.188;2024-03-29T13:09:57;20.70;80.50
34829;DHT22;21042;47.620;12.188;2024-03-29T13:12:29;20.80;78.20
34829;DHT22;21042;47.620;12.188;2024-03-29T13:14:55;20.90;77.50
34829;DHT22;21042;47.620;12.188;2024-03-29T13:17:21;20.90;79.60
34829;DHT22;21042;47.620;12.188;2024-03-29T13:19:47;21.00;77.40
34829;DHT22;21042;47.620;12.188;2024-03-29T13:22:13;20.80;75.90
34829;DHT22;21042;47.620;12.188;2024-03-29T13:24:38;20.80;78.10
34829;DHT22;21042;47.620;12.188;2024-03-29T13:27:04;21.00;76.70
34829;DHT22;21042;47.620;12.188;2024-03-29T13:29:30;21.20;75.40
34829;DHT22;21042;47.620;12.188;2024-03-29T13:31:56;21.20;76.90
34829;DHT22;21042;47.620;12.188;2024-03-29T13:34:22;21.20;74.00
34829;DHT22;21042;47.620;12.188;2024-03-29T13:36:48;21.20;75.70
34829;DHT22;21042;47.620;12.188;2024-03-29T13:39:13;21.20;74.60
34829;DHT22;21042;47.620;12.188;2024-03-29T13:41:40;21.10;75.80
34829;DHT22;21042;47.620;12.188;2024-03-29T13:44:06;20.90;74.50
34829;DHT22;21042;47.620;12.188;2024-03-29T13:46:35;20.80;74.00
34829;DHT22;21042;47.620;12.188;2024-03-29T13:49:02;20.70;73.60
34829;DHT22;21042;47.620;12.188;2024-03-29T13:51:28;20.50;73.10
34829;DHT22;21042;47.620;12.188;2024-03-29T13:53:54;20.50;72.80
34829;DHT22;21042;47.620;12.188;2024-03-29T13:56:20;20.60;70.30
34829;DHT22;21042;47.620;12.188;2024-03-29T13:58:46;20.70;71.60
34829;DHT22;21042;47.620;12.188;2024-03-29T14:01:12;20.90;71.30
34829;DHT22;21042;47.620;12.188;2024-03-29T14:03:38;21.10;70.10
34829;DHT22;21042;47.620;12.188;2024-03-29T14:06:04;21.20;69.30
34829;DHT22;21042;47.620;12.188;2024-03-29T14:08:31;21.30;70.00
34829;DHT22;21042;47.620;12.188;2024-03-29T14:10:57;21.20;69.10
34829;DHT22;21042;47.620;12.188;2024-03-29T14:13:23;21.30;69.20
34829;DHT22;21042;47.620;12.188;2024-03-29T14:15:49;21.20;67.40
34829;DHT22;21042;47.620;12.188;2024-03-29T14:18:15;21.20;68.80
34829;DHT22;21042;47.620;12.188;2024-03-29T14:20:41;21.10;68.80
34829;DHT22;21042;47.620;12.188;2024-03-29T14:23:06;20.90;68.80
34829;DHT22;21042;47.620;12.188;2024-03-29T14:25:36;20.70;70.00
34829;DHT22;21042;47.620;12.188;2024-03-29T14:28:02;20.80;67.70
34829;DHT22;21042;47.620;12.188;2024-03-29T14:30:28;20.90;69.30
34829;DHT22;21042;47.620;12.188;2024-03-29T14:32:55;20.90;67.30
34829;DHT22;21042;47.620;12.188;2024-03-29T14:35:21;20.80;66.80
34829;DHT22;21042;47.620;12.188;2024-03-29T14:37:47;20.80;67.80
34829;DHT22;21042;47.620;12.188;2024-03-29T14:40:13;20.70;67.30
34829;DHT22;21042;47.620;12.188;2024-03-29T14:42:42;20.70;67.50
34829;DHT22;21042;47.620;12.188;2024-03-29T14:45:08;20.60;67.90
34829;DHT22;21042;47.620;12.188;2024-03-29T14:47:34;20.40;68.40
34829;DHT22;21042;47.620;12.188;2024-03-29T14:50:00;20.30;68.70
34829;DHT22;21042;47.620;12.188;2024-03-29T14:52:28;20.40;67.80
34829;DHT22;21042;47.620;12.188;2024-03-29T14:54:54;20.40;67.20
34829;DHT22;21042;47.620;12.188;2024-03-29T14:57:20;20.40;67.60
34829;DHT22;21042;47.620;12.188;2024-03-29T14:59:50;20.30;67.60
34829;DHT22;21042;47.620;12.188;2024-03-29T15:02:15;20.20;66.40
34829;DHT22;21042;47.620;12.188;2024-03-29T15:04:41;20.20;66.50
34829;DHT22;21042;47.620;12.188;2024-03-29T15:07:07;20.20;65.70
34829;DHT22;21042;47.620;12.188;2024-03-29T15:09:33;20.10;65.70
34829;DHT22;21042;47.620;12.188;2024-03-29T15:12:00;20.10;66.80
34829;DHT22;21042;47.620;12.188;2024-03-29T15:14:27;20.20;65.70
34829;DHT22;21042;47.620;12.188;2024-03-29T15:16:53;20.20;64.80
34829;DHT22;21042;47.620;12.188;2024-03-29T15:19:19;20.20;64.60
34829;DHT22;21042;47.620;12.188;2024-03-29T15:21:44;20.40;65.90
34829;DHT22;21042;47.620;12.188;2024-03-29T15:24:10;20.60;65.20